createdAt,value
2019-05-21T00:00:33.775Z,60.59
2019-05-21T00:01:38.550Z,60.67
2019-05-21T00:02:42.735Z,60.71
2019-05-21T00:03:47.698Z,60.66
2019-05-21T00:04:51.878Z,60.65
2019-05-21T00:05:56.682Z,60.70
2019-05-21T00:07:00.906Z,60.72
2019-05-21T00:08:05.662Z,60.90
2019-05-21T00:09:09.847Z,60.88
2019-05-21T00:10:14.596Z,60.83
2019-05-21T00:11:18.769Z,60.83
2019-05-21T00:12:23.568Z,60.74
2019-05-21T00:13:27.752Z,60.72
2019-05-21T00:14:32.710Z,60.67
2019-05-21T00:15:36.890Z,60.53
2019-05-21T00:16:41.690Z,60.62
2019-05-21T00:17:45.933Z,60.54
2019-05-21T00:18:50.712Z,60.81
2019-05-21T00:19:54.951Z,60.70
2019-05-21T00:20:59.677Z,60.67
2019-05-21T00:22:04.823Z,60.73
2019-05-21T00:23:09.559Z,60.78
2019-05-21T00:24:13.738Z,60.68
2019-05-21T00:25:18.651Z,60.70
2019-05-21T00:26:22.915Z,60.72
2019-05-21T00:27:27.721Z,60.84
2019-05-21T00:28:38.806Z,60.77
2019-05-21T00:30:19.641Z,60.72
2019-05-21T00:32:00.830Z,60.66
2019-05-21T00:33:41.645Z,60.70
2019-05-21T00:35:24.212Z,60.72
2019-05-21T00:37:06.840Z,60.75
2019-05-21T00:38:47.529Z,61.23
2019-05-21T00:40:29.549Z,61.71
2019-05-21T00:42:02.129Z,61.80
2019-05-21T00:43:06.930Z,62.37
2019-05-21T00:44:11.414Z,62.31
2019-05-21T00:45:15.687Z,62.05
2019-05-21T00:46:20.421Z,62.03
2019-05-21T00:47:24.600Z,62.08
2019-05-21T00:48:29.335Z,61.92
2019-05-21T00:49:33.578Z,61.71
2019-05-21T00:50:38.421Z,61.69
2019-05-21T00:51:42.571Z,61.59
2019-05-21T00:52:47.413Z,61.38
2019-05-21T00:53:51.589Z,61.46
2019-05-21T00:54:56.438Z,61.43
2019-05-21T00:56:00.746Z,61.34
2019-05-21T00:57:05.541Z,61.60
2019-05-21T00:58:09.717Z,61.48
2019-05-21T00:59:14.498Z,61.58
2019-05-21T01:00:18.676Z,61.46
2019-05-21T01:01:23.593Z,61.65
2019-05-21T01:02:27.774Z,61.39
2019-05-21T01:03:32.515Z,61.32
2019-05-21T01:04:37.728Z,61.13
2019-05-21T01:05:42.482Z,61.19
2019-05-21T01:06:46.725Z,61.22
2019-05-21T01:07:51.453Z,61.11
2019-05-21T01:08:55.717Z,61.04
2019-05-21T01:10:00.464Z,61.04
2019-05-21T01:11:04.636Z,61.14
2019-05-21T01:12:09.416Z,61.08
2019-05-21T01:13:13.646Z,61.03
2019-05-21T01:14:18.447Z,61.15
2019-05-21T01:15:22.999Z,61.10
2019-05-21T01:16:27.821Z,61.18
2019-05-21T01:17:32.167Z,61.03
2019-05-21T01:18:36.956Z,61.05
2019-05-21T01:19:41.161Z,61.11
2019-05-21T01:20:45.972Z,61.06
2019-05-21T01:21:50.150Z,60.94
2019-05-21T01:22:54.917Z,61.01
2019-05-21T01:23:59.100Z,61.07
2019-05-21T01:25:06.354Z,61.05
2019-05-21T01:26:10.602Z,61.31
2019-05-21T01:27:15.387Z,61.15
2019-05-21T01:28:19.563Z,61.18
2019-05-21T01:29:24.293Z,61.17
2019-05-21T01:30:28.514Z,61.03
2019-05-21T01:31:33.314Z,61.03
2019-05-21T01:32:37.568Z,61.04
2019-05-21T01:33:42.296Z,61.03
2019-05-21T01:34:46.641Z,60.95
2019-05-21T01:35:51.411Z,61.12
2019-05-21T01:36:55.749Z,61.10
2019-05-21T01:38:00.582Z,61.13
2019-05-21T01:39:06.007Z,61.08
2019-05-21T01:40:10.801Z,61.10
2019-05-21T01:41:15.205Z,61.25
2019-05-21T01:42:19.929Z,61.12
2019-05-21T01:43:24.106Z,61.10
2019-05-21T01:44:28.922Z,61.20
2019-05-21T01:45:33.159Z,61.10
2019-05-21T01:46:37.892Z,61.06
2019-05-21T01:47:42.132Z,61.27
2019-05-21T01:48:46.893Z,61.18
2019-05-21T01:49:51.071Z,61.07
2019-05-21T01:50:55.831Z,61.05
2019-05-21T01:52:00.224Z,61.04
2019-05-21T01:53:05.140Z,61.02
2019-05-21T01:54:09.314Z,61.21
2019-05-21T01:55:14.115Z,61.17
2019-05-21T01:56:18.293Z,61.05
2019-05-21T01:57:23.238Z,61.19
2019-05-21T01:58:27.424Z,61.23
2019-05-21T01:59:33.353Z,61.14
2019-05-21T02:00:37.602Z,61.13
2019-05-21T02:01:42.378Z,61.30
2019-05-21T02:02:46.703Z,61.20
2019-05-21T02:03:51.615Z,61.07
2019-05-21T02:04:55.997Z,61.09
2019-05-21T02:06:00.777Z,61.13
2019-05-21T02:07:05.022Z,61.21
2019-05-21T02:08:09.754Z,61.26
2019-05-21T02:09:13.941Z,61.21
2019-05-21T02:10:18.673Z,61.23
2019-05-21T02:11:22.886Z,61.28
2019-05-21T02:12:28.045Z,61.24
2019-05-21T02:13:32.309Z,61.27
2019-05-21T02:14:37.061Z,61.29
2019-05-21T02:15:41.610Z,61.15
2019-05-21T02:16:46.361Z,61.27
2019-05-21T02:17:50.533Z,61.09
2019-05-21T02:18:55.355Z,61.02
2019-05-21T02:19:59.559Z,60.98
2019-05-21T02:21:04.906Z,61.13
2019-05-21T02:22:09.084Z,61.16
2019-05-21T02:23:13.949Z,61.26
2019-05-21T02:24:18.174Z,61.49
2019-05-21T02:25:23.046Z,61.52
2019-05-21T02:26:27.186Z,61.58
2019-05-21T02:27:31.920Z,61.55
2019-05-21T02:28:36.096Z,61.61
2019-05-21T02:29:40.839Z,61.67
2019-05-21T02:30:45.380Z,61.76
2019-05-21T02:31:50.126Z,61.68
2019-05-21T02:32:54.361Z,61.76
2019-05-21T02:33:59.160Z,61.60
2019-05-21T02:35:05.106Z,61.57
2019-05-21T02:36:09.953Z,61.55
2019-05-21T02:37:14.130Z,61.59
2019-05-21T02:38:19.104Z,61.59
2019-05-21T02:39:23.366Z,61.57
2019-05-21T02:40:28.104Z,61.48
2019-05-21T02:41:32.451Z,61.54
2019-05-21T02:42:37.253Z,61.37
2019-05-21T02:43:41.495Z,61.26
2019-05-21T02:44:46.284Z,61.17
2019-05-21T02:45:50.432Z,61.26
2019-05-21T02:46:55.376Z,61.20
2019-05-21T02:47:59.478Z,61.22
2019-05-21T02:49:04.340Z,61.17
2019-05-21T02:50:08.985Z,61.34
2019-05-21T02:51:13.734Z,61.40
2019-05-21T02:52:17.912Z,61.42
2019-05-21T02:53:22.738Z,61.54
2019-05-21T02:54:40.334Z,61.60
2019-05-21T02:55:33.695Z,61.61
2019-05-21T02:56:38.042Z,61.56
2019-05-21T02:57:42.911Z,61.47
2019-05-21T02:58:47.082Z,61.51
2019-05-21T02:59:52.951Z,61.47
2019-05-21T03:00:58.851Z,61.47
2019-05-21T03:02:07.724Z,61.67
2019-05-21T03:03:13.504Z,61.65
2019-05-21T03:04:18.232Z,61.72
2019-05-21T03:05:22.418Z,61.75
2019-05-21T03:06:27.396Z,61.80
2019-05-21T03:07:32.620Z,61.97
2019-05-21T03:08:37.400Z,61.83
2019-05-21T03:09:41.649Z,61.97
2019-05-21T03:10:46.412Z,61.99
2019-05-21T03:11:50.561Z,62.02
2019-05-21T03:12:56.292Z,62.12
2019-05-21T03:14:00.499Z,62.02
2019-05-21T03:15:06.587Z,62.00
2019-05-21T03:16:10.895Z,61.88
2019-05-21T03:17:15.697Z,61.97
2019-05-21T03:18:19.892Z,61.98
2019-05-21T03:19:24.926Z,61.94
2019-05-21T03:20:29.161Z,62.27
2019-05-21T03:21:33.895Z,62.52
2019-05-21T03:22:38.063Z,62.37
2019-05-21T03:23:42.860Z,62.42
2019-05-21T03:24:47.046Z,62.24
2019-05-21T03:25:51.773Z,62.20
2019-05-21T03:26:56.017Z,62.38
2019-05-21T03:28:00.753Z,62.50
2019-05-21T03:29:05.070Z,62.37
2019-05-21T03:30:09.870Z,62.44
2019-05-21T03:31:14.132Z,62.51
2019-05-21T03:32:18.930Z,62.69
2019-05-21T03:33:23.316Z,62.99
2019-05-21T03:34:28.130Z,62.95
2019-05-21T03:35:32.362Z,62.84
2019-05-21T03:36:37.107Z,62.76
2019-05-21T03:37:41.303Z,62.76
2019-05-21T03:38:46.078Z,62.92
2019-05-21T03:39:50.212Z,62.74
2019-05-21T03:40:55.011Z,62.98
2019-05-21T03:41:59.211Z,63.38
2019-05-21T03:43:03.946Z,63.29
2019-05-21T03:44:09.161Z,63.03
2019-05-21T03:45:13.896Z,63.52
2019-05-21T03:46:18.136Z,63.22
2019-05-21T03:47:22.963Z,63.11
2019-05-21T03:48:27.184Z,63.57
2019-05-21T03:49:32.183Z,63.29
2019-05-21T03:50:36.406Z,63.37
2019-05-21T03:51:41.097Z,63.06
2019-05-21T03:52:45.296Z,63.40
2019-05-21T03:53:50.025Z,63.50
2019-05-21T03:54:54.202Z,63.74
2019-05-21T03:55:59.202Z,63.73
2019-05-21T03:57:04.061Z,63.91
2019-05-21T03:58:08.883Z,63.57
2019-05-21T03:59:13.058Z,63.93
2019-05-21T04:00:18.984Z,63.81
2019-05-21T04:01:23.262Z,63.87
2019-05-21T04:02:28.063Z,64.02
2019-05-21T04:03:32.259Z,63.96
2019-05-21T04:04:37.055Z,63.96
2019-05-21T04:05:41.302Z,64.09
2019-05-21T04:06:52.093Z,63.99
2019-05-21T04:07:52.058Z,64.14
2019-05-21T04:08:56.811Z,64.40
2019-05-21T04:10:01.041Z,64.21
2019-05-21T04:11:05.719Z,64.60
2019-05-21T04:12:10.398Z,64.07
2019-05-21T04:13:15.154Z,64.20
2019-05-21T04:14:36.950Z,64.40
2019-05-21T04:15:46.569Z,64.19
2019-05-21T04:16:52.502Z,64.20
2019-05-21T04:17:58.309Z,64.43
2019-05-21T04:19:04.195Z,64.24
2019-05-21T04:20:08.764Z,64.48
2019-05-21T04:21:13.491Z,64.81
2019-05-21T04:22:17.760Z,64.97
2019-05-21T04:23:25.984Z,65.24
2019-05-21T04:24:30.154Z,65.29
2019-05-21T04:25:34.932Z,65.55
2019-05-21T04:26:39.121Z,65.49
2019-05-21T04:27:44.017Z,65.97
2019-05-21T04:28:48.284Z,66.16
2019-05-21T04:29:53.018Z,66.39
2019-05-21T04:30:57.187Z,66.14
2019-05-21T04:32:02.250Z,66.16
2019-05-21T04:33:06.522Z,66.06
2019-05-21T04:34:12.331Z,66.01
2019-05-21T04:35:16.564Z,65.94
2019-05-21T04:36:21.301Z,65.73
2019-05-21T04:37:25.672Z,65.73
2019-05-21T04:38:30.505Z,65.44
2019-05-21T04:39:34.752Z,65.88
2019-05-21T04:40:39.965Z,65.61
2019-05-21T04:41:44.148Z,66.00
2019-05-21T04:42:49.082Z,65.96
2019-05-21T04:43:53.199Z,65.70
2019-05-21T04:44:59.029Z,66.06
2019-05-21T04:46:04.214Z,65.96
2019-05-21T04:47:08.938Z,66.10
2019-05-21T04:48:13.179Z,66.16
2019-05-21T04:49:18.074Z,66.25
2019-05-21T04:50:22.362Z,65.83
2019-05-21T04:51:27.510Z,66.12
2019-05-21T04:52:31.774Z,66.36
2019-05-21T04:53:36.507Z,66.40
2019-05-21T04:54:41.012Z,66.33
2019-05-21T04:55:45.750Z,66.26
2019-05-21T04:56:50.038Z,66.09
2019-05-21T04:57:55.162Z,66.43
2019-05-21T04:58:59.329Z,66.49
2019-05-21T05:00:05.782Z,66.93
2019-05-21T05:01:10.064Z,66.73
2019-05-21T05:02:14.796Z,66.85
2019-05-21T05:03:19.078Z,66.89
2019-05-21T05:04:23.792Z,66.87
2019-05-21T05:05:28.033Z,66.89
2019-05-21T05:06:32.767Z,66.41
2019-05-21T05:07:37.163Z,66.65
2019-05-21T05:08:41.956Z,66.65
2019-05-21T05:09:46.319Z,66.52
2019-05-21T05:10:51.035Z,66.34
2019-05-21T05:11:55.209Z,66.40
2019-05-21T05:13:00.067Z,66.96
2019-05-21T05:14:04.466Z,66.92
2019-05-21T05:15:09.364Z,66.83
2019-05-21T05:16:13.551Z,66.86
2019-05-21T05:17:18.388Z,66.74
2019-05-21T05:18:22.615Z,67.10
2019-05-21T05:19:27.501Z,66.71
2019-05-21T05:20:31.665Z,66.69
2019-05-21T05:21:36.397Z,66.75
2019-05-21T05:22:40.761Z,66.84
2019-05-21T05:23:45.482Z,66.99
2019-05-21T05:24:49.722Z,67.21
2019-05-21T05:25:54.637Z,67.11
2019-05-21T05:26:58.807Z,67.33
2019-05-21T05:28:03.954Z,67.39
2019-05-21T05:29:08.313Z,67.99
2019-05-21T05:30:13.428Z,67.81
2019-05-21T05:31:17.601Z,67.63
2019-05-21T05:32:22.338Z,67.88
2019-05-21T05:33:27.557Z,67.95
2019-05-21T05:34:32.286Z,67.52
2019-05-21T05:35:36.481Z,67.79
2019-05-21T05:36:41.335Z,67.62
2019-05-21T05:37:48.725Z,67.70
2019-05-21T05:38:51.993Z,67.46
2019-05-21T05:39:56.431Z,67.46
2019-05-21T05:41:01.148Z,67.28
2019-05-21T05:42:05.356Z,67.32
2019-05-21T05:43:10.137Z,67.11
2019-05-21T05:44:14.428Z,67.10
2019-05-21T05:45:20.318Z,67.17
2019-05-21T05:46:24.543Z,66.93
2019-05-21T05:47:29.455Z,67.08
2019-05-21T05:48:35.261Z,66.87
2019-05-21T05:49:49.574Z,67.31
2019-05-21T05:50:59.212Z,66.82
2019-05-21T05:52:04.070Z,66.94
2019-05-21T05:53:08.631Z,66.63
2019-05-21T05:54:13.415Z,66.92
2019-05-21T05:55:17.577Z,67.37
2019-05-21T05:56:24.097Z,67.54
2019-05-21T05:57:28.331Z,67.70
2019-05-21T05:58:33.055Z,67.61
2019-05-21T05:59:37.227Z,67.63
2019-05-21T06:00:42.006Z,67.33
2019-05-21T06:01:46.520Z,67.02
2019-05-21T06:02:51.416Z,66.73
2019-05-21T06:03:55.755Z,66.71
2019-05-21T06:05:00.509Z,66.93
2019-05-21T06:06:04.944Z,67.21
2019-05-21T06:07:09.695Z,66.78
2019-05-21T06:08:15.397Z,66.88
2019-05-21T06:09:20.291Z,66.89
2019-05-21T06:10:24.480Z,67.03
2019-05-21T06:11:29.213Z,67.01
2019-05-21T06:12:33.426Z,66.98
2019-05-21T06:13:38.149Z,66.91
2019-05-21T06:14:42.487Z,67.04
2019-05-21T06:15:47.277Z,67.11
2019-05-21T06:16:51.437Z,67.08
2019-05-21T06:17:56.225Z,66.82
2019-05-21T06:19:00.395Z,67.07
2019-05-21T06:20:07.203Z,67.18
2019-05-21T06:21:11.370Z,66.92
2019-05-21T06:22:16.193Z,67.10
2019-05-21T06:23:20.362Z,67.08
2019-05-21T06:24:26.247Z,67.33
2019-05-21T06:25:30.442Z,67.28
2019-05-21T06:26:35.242Z,67.10
2019-05-21T06:27:39.450Z,67.26
2019-05-21T06:28:44.164Z,67.00
2019-05-21T06:29:48.509Z,67.11
2019-05-21T06:30:53.108Z,67.04
2019-05-21T06:31:57.456Z,67.31
2019-05-21T06:33:02.096Z,67.44
2019-05-21T06:34:06.938Z,67.69
2019-05-21T06:35:11.572Z,67.48
2019-05-21T06:36:16.124Z,67.58
2019-05-21T06:37:20.658Z,67.69
2019-05-21T06:38:25.202Z,67.70
2019-05-21T06:39:29.844Z,67.58
2019-05-21T06:40:34.195Z,67.70
2019-05-21T06:41:38.787Z,67.37
2019-05-21T06:42:43.243Z,67.43
2019-05-21T06:43:47.828Z,67.40
2019-05-21T06:44:52.201Z,67.26
2019-05-21T06:45:56.806Z,67.18
2019-05-21T06:47:01.171Z,67.32
2019-05-21T06:48:06.827Z,67.26
2019-05-21T06:49:11.235Z,67.28
2019-05-21T06:50:16.191Z,67.46
2019-05-21T06:51:21.729Z,67.58
2019-05-21T06:52:26.328Z,67.45
2019-05-21T06:53:31.044Z,67.19
2019-05-21T06:54:35.565Z,67.55
2019-05-21T06:55:41.149Z,67.48
2019-05-21T06:56:45.724Z,67.41
2019-05-21T06:57:50.073Z,67.53
2019-05-21T06:58:54.728Z,67.20
2019-05-21T06:59:59.330Z,67.00
2019-05-21T07:01:04.789Z,67.04
2019-05-21T07:02:09.265Z,67.08
2019-05-21T07:03:13.943Z,67.09
2019-05-21T07:04:18.343Z,67.30
2019-05-21T07:05:22.945Z,67.35
2019-05-21T07:06:27.356Z,67.50
2019-05-21T07:07:32.051Z,67.47
2019-05-21T07:08:36.484Z,67.84
2019-05-21T07:09:41.015Z,67.63
2019-05-21T07:10:45.444Z,67.86
2019-05-21T07:11:50.039Z,67.67
2019-05-21T07:12:54.427Z,67.24
2019-05-21T07:14:00.073Z,67.12
2019-05-21T07:15:06.290Z,66.89
2019-05-21T07:16:10.827Z,66.69
2019-05-21T07:17:15.179Z,66.85
2019-05-21T07:18:19.779Z,66.69
2019-05-21T07:19:24.305Z,66.52
2019-05-21T07:20:28.916Z,66.51
2019-05-21T07:21:33.339Z,66.84
2019-05-21T07:22:37.911Z,66.73
2019-05-21T07:23:42.391Z,66.72
2019-05-21T07:24:47.024Z,66.55
2019-05-21T07:25:51.380Z,66.52
2019-05-21T07:26:56.956Z,66.38
2019-05-21T07:28:01.497Z,66.56
2019-05-21T07:29:06.222Z,66.68
2019-05-21T07:30:10.716Z,66.70
2019-05-21T07:31:17.597Z,66.72
2019-05-21T07:32:21.303Z,66.77
2019-05-21T07:33:25.882Z,66.80
2019-05-21T07:34:30.312Z,66.83
2019-05-21T07:35:34.841Z,66.72
2019-05-21T07:36:39.335Z,66.59
2019-05-21T07:37:43.891Z,66.59
2019-05-21T07:38:53.329Z,66.49
2019-05-21T07:39:54.773Z,66.78
2019-05-21T07:40:59.144Z,66.88
2019-05-21T07:42:03.689Z,66.96
2019-05-21T07:43:08.109Z,66.99
2019-05-21T07:44:12.727Z,66.92
2019-05-21T07:45:17.075Z,66.93
2019-05-21T07:46:21.616Z,66.89
2019-05-21T07:47:25.974Z,67.13
2019-05-21T07:48:30.543Z,66.97
2019-05-21T07:49:34.919Z,67.02
2019-05-21T07:50:39.562Z,66.84
2019-05-21T07:51:44.323Z,67.00
2019-05-21T07:52:48.964Z,67.31
2019-05-21T07:53:54.607Z,67.40
2019-05-21T07:54:59.128Z,67.78
2019-05-21T07:56:03.551Z,67.33
2019-05-21T07:57:08.125Z,67.37
2019-05-21T07:58:12.655Z,67.33
2019-05-21T07:59:17.391Z,67.61
2019-05-21T08:00:21.744Z,67.67
2019-05-21T08:01:26.420Z,67.68
2019-05-21T08:02:30.775Z,67.70
2019-05-21T08:03:35.313Z,67.85
2019-05-21T08:04:39.816Z,67.46
2019-05-21T08:05:44.355Z,67.64
2019-05-21T08:06:48.783Z,67.74
2019-05-21T08:07:53.360Z,67.57
2019-05-21T08:09:12.407Z,67.49
2019-05-21T08:10:06.715Z,67.58
2019-05-21T08:11:11.263Z,67.56
2019-05-21T08:12:36.844Z,67.42
2019-05-21T08:13:22.156Z,67.45
2019-05-21T08:14:26.694Z,67.49
2019-05-21T08:15:31.180Z,67.48
2019-05-21T08:16:35.823Z,67.56
2019-05-21T08:17:40.184Z,67.38
2019-05-21T08:18:44.723Z,67.42
2019-05-21T08:19:49.432Z,67.63
2019-05-21T08:20:54.065Z,67.33
2019-05-21T08:21:58.493Z,67.11
2019-05-21T08:23:03.034Z,67.25
2019-05-21T08:24:07.385Z,67.04
2019-05-21T08:25:14.776Z,66.89
2019-05-21T08:26:18.301Z,67.01
2019-05-21T08:27:22.855Z,67.04
2019-05-21T08:28:27.204Z,67.21
2019-05-21T08:29:31.804Z,67.08
2019-05-21T08:30:36.165Z,67.16
2019-05-21T08:31:40.971Z,67.08
2019-05-21T08:32:45.394Z,67.06
2019-05-21T08:33:49.935Z,67.01
2019-05-21T08:34:54.357Z,66.80
2019-05-21T08:35:58.895Z,66.95
2019-05-21T08:37:03.693Z,66.92
2019-05-21T08:38:08.295Z,67.10
2019-05-21T08:39:27.374Z,67.29
2019-05-21T08:40:18.879Z,67.19
2019-05-21T08:41:23.267Z,67.56
2019-05-21T08:42:27.947Z,67.57
2019-05-21T08:43:32.415Z,67.65
2019-05-21T08:44:36.893Z,67.69
2019-05-21T08:45:41.251Z,67.73
2019-05-21T08:46:45.822Z,67.83
2019-05-21T08:47:50.174Z,67.92
2019-05-21T08:48:54.755Z,68.16
2019-05-21T08:49:59.111Z,67.85
2019-05-21T08:51:03.722Z,67.77
2019-05-21T08:52:08.117Z,67.79
2019-05-21T08:53:12.665Z,67.83
2019-05-21T08:54:18.442Z,68.04
2019-05-21T08:55:23.058Z,67.84
2019-05-21T08:56:27.407Z,67.70
2019-05-21T08:57:31.970Z,67.91
2019-05-21T08:58:36.393Z,67.83
2019-05-21T08:59:41.014Z,67.79
2019-05-21T09:00:45.354Z,67.78
2019-05-21T09:01:49.883Z,67.78
2019-05-21T09:02:54.236Z,67.68
2019-05-21T09:03:58.804Z,67.54
2019-05-21T09:05:03.158Z,67.37
2019-05-21T09:06:07.700Z,67.42
2019-05-21T09:07:12.119Z,67.50
2019-05-21T09:08:16.696Z,67.62
2019-05-21T09:09:21.042Z,67.81
2019-05-21T09:10:25.535Z,67.70
2019-05-21T09:11:29.907Z,67.60
2019-05-21T09:12:34.496Z,67.53
2019-05-21T09:13:38.916Z,67.48
2019-05-21T09:14:43.447Z,67.40
2019-05-21T09:15:47.920Z,67.54
2019-05-21T09:16:52.456Z,67.47
2019-05-21T09:17:56.811Z,67.47
2019-05-21T09:19:01.423Z,67.58
2019-05-21T09:20:09.602Z,67.49
2019-05-21T09:21:14.260Z,67.38
2019-05-21T09:22:19.581Z,67.37
2019-05-21T09:23:24.165Z,67.24
2019-05-21T09:24:29.491Z,67.23
2019-05-21T09:25:34.028Z,67.20
2019-05-21T09:26:38.627Z,67.26
2019-05-21T09:27:43.213Z,67.42
2019-05-21T09:28:48.534Z,67.20
2019-05-21T09:29:53.073Z,67.45
2019-05-21T09:31:01.585Z,67.26
2019-05-21T09:32:05.163Z,67.29
2019-05-21T09:33:09.518Z,67.37
2019-05-21T09:34:14.089Z,67.67
2019-05-21T09:35:18.521Z,67.63
2019-05-21T09:36:25.246Z,67.63
2019-05-21T09:37:29.209Z,67.32
2019-05-21T09:38:33.788Z,67.55
2019-05-21T09:39:38.144Z,67.33
2019-05-21T09:40:42.713Z,67.18
2019-05-21T09:41:47.134Z,67.24
2019-05-21T09:42:51.719Z,67.46
2019-05-21T09:43:56.060Z,67.68
2019-05-21T09:45:00.752Z,67.79
2019-05-21T09:46:05.137Z,67.68
2019-05-21T09:47:09.684Z,67.69
2019-05-21T09:48:14.067Z,67.74
2019-05-21T09:49:18.726Z,67.44
2019-05-21T09:50:23.187Z,67.23
2019-05-21T09:51:27.753Z,66.94
2019-05-21T09:52:32.110Z,66.94
2019-05-21T09:53:36.934Z,66.87
2019-05-21T09:54:41.348Z,66.99
2019-05-21T09:55:45.938Z,67.34
2019-05-21T09:56:50.357Z,67.34
2019-05-21T09:58:05.039Z,67.38
2019-05-21T09:59:17.077Z,67.26
2019-05-21T10:00:34.404Z,67.36
2019-05-21T10:01:47.496Z,67.15
2019-05-21T10:02:49.472Z,67.18
2019-05-21T10:03:58.903Z,67.18
2019-05-21T10:05:03.624Z,67.07
2019-05-21T10:06:08.343Z,67.05
2019-05-21T10:07:12.711Z,67.23
2019-05-21T10:08:17.503Z,67.10
2019-05-21T10:09:21.971Z,67.02
2019-05-21T10:10:26.948Z,67.11
2019-05-21T10:11:31.165Z,66.79
2019-05-21T10:12:36.874Z,67.04
2019-05-21T10:13:41.039Z,67.08
2019-05-21T10:14:45.767Z,66.92
2019-05-21T10:15:50.026Z,67.19
2019-05-21T10:16:54.831Z,67.32
2019-05-21T10:17:59.055Z,67.44
2019-05-21T10:19:03.818Z,67.57
2019-05-21T10:20:08.051Z,67.68
2019-05-21T10:21:12.773Z,67.60
2019-05-21T10:22:17.015Z,67.66
2019-05-21T10:23:21.910Z,67.40
2019-05-21T10:24:26.085Z,67.42
2019-05-21T10:25:30.858Z,67.29
2019-05-21T10:26:35.340Z,67.37
2019-05-21T10:27:41.105Z,67.13
2019-05-21T10:28:45.362Z,67.28
2019-05-21T10:29:50.080Z,67.20
2019-05-21T10:30:54.271Z,67.14
2019-05-21T10:31:59.140Z,67.19
2019-05-21T10:33:03.420Z,67.27
2019-05-21T10:34:08.141Z,67.32
2019-05-21T10:35:12.462Z,67.12
2019-05-21T10:36:17.487Z,67.18
2019-05-21T10:37:21.907Z,67.30
2019-05-21T10:38:26.804Z,67.08
2019-05-21T10:39:31.113Z,67.04
2019-05-21T10:40:35.831Z,67.14
2019-05-21T10:41:40.004Z,67.10
2019-05-21T10:42:44.821Z,67.02
2019-05-21T10:43:48.968Z,66.76
2019-05-21T10:44:53.705Z,66.94
2019-05-21T10:45:57.868Z,66.77
2019-05-21T10:47:02.667Z,66.80
2019-05-21T10:48:06.993Z,66.75
2019-05-21T10:49:11.789Z,66.71
2019-05-21T10:50:15.978Z,66.73
2019-05-21T10:51:20.721Z,66.80
2019-05-21T10:52:25.336Z,66.77
2019-05-21T10:53:30.327Z,66.74
2019-05-21T10:54:34.483Z,66.56
2019-05-21T10:55:39.206Z,66.39
2019-05-21T10:56:48.090Z,66.55
2019-05-21T10:57:50.045Z,66.55
2019-05-21T10:58:54.397Z,66.47
2019-05-21T10:59:59.122Z,66.54
2019-05-21T11:01:04.951Z,66.62
2019-05-21T11:02:13.640Z,66.62
2019-05-21T11:03:19.479Z,66.74
2019-05-21T11:04:25.462Z,66.74
2019-05-21T11:05:37.055Z,66.72
2019-05-21T11:06:43.289Z,66.72
2019-05-21T11:07:47.463Z,66.56
2019-05-21T11:08:52.183Z,66.52
2019-05-21T11:09:56.641Z,66.76
2019-05-21T11:11:01.414Z,66.58
2019-05-21T11:12:06.953Z,66.27
2019-05-21T11:13:11.700Z,66.36
2019-05-21T11:14:15.863Z,66.25
2019-05-21T11:15:20.810Z,66.24
2019-05-21T11:16:25.058Z,66.33
2019-05-21T11:17:29.658Z,66.28
2019-05-21T11:18:33.811Z,66.25
2019-05-21T11:19:39.428Z,66.21
2019-05-21T11:20:43.660Z,66.14
2019-05-21T11:21:48.410Z,65.81
2019-05-21T11:22:52.619Z,65.87
2019-05-21T11:23:58.468Z,66.05
2019-05-21T11:25:02.667Z,66.22
2019-05-21T11:26:07.431Z,66.11
2019-05-21T11:27:11.640Z,66.21
2019-05-21T11:28:16.437Z,66.06
2019-05-21T11:29:20.613Z,65.81
2019-05-21T11:30:25.624Z,65.79
2019-05-21T11:31:29.806Z,65.76
2019-05-21T11:32:34.564Z,65.89
2019-05-21T11:33:38.829Z,65.72
2019-05-21T11:34:43.553Z,65.73
2019-05-21T11:35:47.895Z,65.71
2019-05-21T11:36:52.723Z,65.70
2019-05-21T11:37:57.014Z,65.69
2019-05-21T11:39:01.738Z,65.64
2019-05-21T11:40:08.495Z,65.50
2019-05-21T11:41:12.715Z,65.61
2019-05-21T11:42:16.875Z,65.47
2019-05-21T11:43:21.728Z,65.54
2019-05-21T11:44:25.948Z,65.44
2019-05-21T11:45:32.779Z,65.25
2019-05-21T11:46:37.736Z,65.26
2019-05-21T11:47:42.533Z,65.10
2019-05-21T11:48:46.698Z,65.08
2019-05-21T11:49:52.387Z,65.28
2019-05-21T11:50:56.576Z,65.22
2019-05-21T11:52:01.438Z,65.19
2019-05-21T11:53:05.722Z,65.26
2019-05-21T11:54:10.410Z,65.36
2019-05-21T11:55:14.585Z,65.30
2019-05-21T11:56:20.287Z,65.16
2019-05-21T11:57:24.449Z,65.22
2019-05-21T11:58:30.244Z,65.25
2019-05-21T11:59:34.399Z,65.26
2019-05-21T12:00:39.333Z,65.19
2019-05-21T12:01:43.495Z,65.23
2019-05-21T12:02:48.217Z,65.14
2019-05-21T12:03:52.532Z,65.12
2019-05-21T12:04:57.243Z,65.03
2019-05-21T12:06:01.674Z,65.06
2019-05-21T12:07:06.423Z,65.08
2019-05-21T12:08:10.735Z,64.87
2019-05-21T12:09:15.251Z,65.28
2019-05-21T12:10:19.417Z,65.36
2019-05-21T12:11:26.041Z,65.33
2019-05-21T12:12:30.143Z,65.25
2019-05-21T12:13:34.917Z,65.29
2019-05-21T12:14:39.032Z,65.18
2019-05-21T12:15:43.759Z,65.07
2019-05-21T12:16:47.958Z,64.89
2019-05-21T12:17:52.783Z,64.96
2019-05-21T12:18:56.956Z,65.03
2019-05-21T12:20:01.671Z,65.03
2019-05-21T12:21:05.864Z,64.92
2019-05-21T12:22:10.697Z,64.93
2019-05-21T12:23:14.867Z,65.07
2019-05-21T12:24:19.577Z,64.74
2019-05-21T12:25:23.838Z,64.81
2019-05-21T12:26:28.588Z,64.93
2019-05-21T12:27:33.840Z,64.83
2019-05-21T12:28:38.842Z,64.93
2019-05-21T12:29:43.015Z,64.80
2019-05-21T12:30:47.804Z,64.65
2019-05-21T12:31:52.104Z,64.85
2019-05-21T12:32:56.832Z,64.84
2019-05-21T12:34:01.101Z,64.73
2019-05-21T12:35:06.695Z,64.74
2019-05-21T12:36:10.930Z,64.52
2019-05-21T12:37:15.769Z,64.52
2019-05-21T12:38:19.935Z,64.63
2019-05-21T12:39:24.933Z,64.59
2019-05-21T12:40:29.097Z,64.51
2019-05-21T12:41:33.872Z,64.31
2019-05-21T12:42:38.061Z,64.41
2019-05-21T12:43:42.782Z,64.33
2019-05-21T12:44:47.071Z,64.44
2019-05-21T12:45:51.796Z,64.51
2019-05-21T12:46:57.063Z,64.72
2019-05-21T12:48:01.825Z,64.78
2019-05-21T12:49:06.132Z,64.84
2019-05-21T12:50:10.958Z,64.73
2019-05-21T12:51:16.115Z,64.74
2019-05-21T12:52:21.173Z,64.70
2019-05-21T12:53:25.438Z,64.68
2019-05-21T12:54:30.163Z,64.72
2019-05-21T12:55:34.333Z,64.88
2019-05-21T12:56:40.883Z,64.76
2019-05-21T12:57:45.332Z,64.75
2019-05-21T12:58:50.058Z,64.85
2019-05-21T12:59:54.229Z,65.05
2019-05-21T13:00:59.027Z,64.92
2019-05-21T13:02:03.196Z,64.78
2019-05-21T13:03:08.003Z,64.76
2019-05-21T13:04:12.201Z,64.96
2019-05-21T13:05:16.920Z,64.95
2019-05-21T13:06:21.117Z,64.85
2019-05-21T13:07:25.939Z,64.85
2019-05-21T13:08:30.347Z,64.98
2019-05-21T13:09:35.105Z,64.97
2019-05-21T13:10:39.389Z,64.86
2019-05-21T13:11:44.261Z,64.77
2019-05-21T13:12:49.752Z,64.90
2019-05-21T13:13:54.661Z,64.72
2019-05-21T13:14:58.865Z,65.00
2019-05-21T13:16:03.945Z,64.96
2019-05-21T13:17:08.593Z,64.86
2019-05-21T13:18:13.373Z,64.75
2019-05-21T13:19:17.538Z,64.78
2019-05-21T13:20:22.472Z,64.87
2019-05-21T13:21:26.637Z,65.01
2019-05-21T13:22:31.615Z,64.92
2019-05-21T13:23:35.969Z,64.90
2019-05-21T13:24:40.704Z,64.75
2019-05-21T13:25:44.967Z,64.78
2019-05-21T13:26:49.722Z,64.93
2019-05-21T13:27:57.553Z,65.12
2019-05-21T13:29:00.910Z,65.02
2019-05-21T13:30:08.286Z,65.22
2019-05-21T13:31:13.190Z,65.25
2019-05-21T13:32:17.427Z,65.16
2019-05-21T13:33:22.143Z,65.13
2019-05-21T13:34:26.314Z,65.18
2019-05-21T13:35:31.190Z,65.28
2019-05-21T13:36:36.522Z,65.12
2019-05-21T13:37:41.222Z,65.33
2019-05-21T13:38:45.403Z,65.27
2019-05-21T13:39:50.760Z,65.22
2019-05-21T13:40:55.316Z,65.13
2019-05-21T13:42:00.150Z,65.06
2019-05-21T13:43:04.368Z,65.06
2019-05-21T13:44:09.098Z,65.11
2019-05-21T13:45:13.263Z,65.28
2019-05-21T13:46:18.163Z,65.18
2019-05-21T13:47:22.477Z,65.20
2019-05-21T13:48:27.371Z,65.41
2019-05-21T13:49:31.536Z,65.33
2019-05-21T13:50:36.303Z,65.33
2019-05-21T13:51:40.571Z,65.29
2019-05-21T13:52:45.305Z,65.44
2019-05-21T13:53:49.484Z,65.30
2019-05-21T13:54:54.452Z,65.17
2019-05-21T13:55:58.647Z,65.25
2019-05-21T13:57:03.384Z,65.35
2019-05-21T13:58:07.539Z,65.32
2019-05-21T13:59:12.565Z,65.25